createdAt,value
2022-08-17T00:01:32.740Z,19.73
2022-08-17T00:04:19.221Z,24.75
2022-08-17T00:06:46.176Z,22.05
2022-08-17T00:09:18.309Z,23.45
2022-08-17T00:12:34.923Z,25.20
2022-08-17T00:14:40.008Z,23.20
2022-08-17T00:17:06.697Z,22.60
2022-08-17T00:19:33.978Z,22.00
2022-08-17T00:22:31.451Z,23.45
2022-08-17T00:24:49.688Z,23.77
2022-08-17T00:27:16.261Z,24.38
2022-08-17T00:29:45.385Z,21.27
2022-08-17T00:33:12.019Z,22.98
2022-08-17T00:34:59.850Z,23.83
2022-08-17T00:37:26.410Z,27.55
2022-08-17T00:39:52.992Z,22.70
2022-08-17T00:42:19.583Z,25.27
2022-08-17T00:44:46.617Z,23.00
2022-08-17T00:47:13.720Z,23.38
2022-08-17T00:49:40.225Z,23.05
2022-08-17T00:52:12.651Z,23.50
2022-08-17T00:54:42.197Z,21.73
2022-08-17T00:57:13.193Z,23.75
2022-08-17T00:59:47.128Z,23.50
2022-08-17T01:02:29.593Z,24.55
2022-08-17T01:05:00.899Z,25.67
2022-08-17T01:07:27.752Z,26.08
2022-08-17T01:09:54.614Z,29.23
2022-08-17T01:12:21.411Z,25.75
2022-08-17T01:14:48.217Z,24.23
2022-08-17T01:17:14.721Z,26.65
2022-08-17T01:19:42.142Z,26.33
2022-08-17T01:22:11.552Z,26.83
2022-08-17T01:24:42.320Z,28.58
2022-08-17T01:27:10.798Z,26.85
2022-08-17T01:29:39.596Z,26.20
2022-08-17T01:32:06.870Z,24.45
2022-08-17T01:34:42.840Z,23.05
2022-08-17T01:37:12.162Z,25.90
2022-08-17T01:39:54.722Z,28.23
2022-08-17T01:42:31.314Z,26.90
2022-08-17T01:44:59.671Z,26.42
2022-08-17T01:47:26.183Z,24.98
2022-08-17T01:49:52.847Z,29.63
2022-08-17T01:52:21.966Z,26.27
2022-08-17T01:54:49.307Z,24.42
2022-08-17T01:57:15.862Z,23.58
2022-08-17T01:59:42.841Z,26.67
2022-08-17T02:02:09.369Z,28.23
2022-08-17T02:04:35.907Z,26.80
2022-08-17T02:07:02.419Z,29.95
2022-08-17T02:09:30.292Z,33.38
2022-08-17T02:11:59.875Z,35.00
2022-08-17T02:14:46.395Z,34.97
2022-08-17T02:17:12.904Z,33.53
2022-08-17T02:19:40.189Z,35.70
2022-08-17T02:22:10.232Z,32.67
2022-08-17T02:24:59.569Z,34.50
2022-08-17T02:27:24.190Z,31.60
2022-08-17T02:29:50.683Z,34.97
2022-08-17T02:32:28.227Z,32.20
2022-08-17T02:34:56.673Z,23.38
2022-08-17T02:37:23.240Z,20.33
2022-08-17T02:39:49.778Z,24.83
2022-08-17T02:42:16.341Z,20.38
2022-08-17T02:44:42.978Z,21.15
2022-08-17T02:47:11.815Z,28.77
2022-08-17T02:49:38.478Z,31.13
2022-08-17T02:52:06.634Z,27.05
2022-08-17T02:54:39.916Z,23.83
2022-08-17T02:57:09.229Z,23.20
2022-08-17T02:59:35.753Z,21.15
2022-08-17T03:02:07.638Z,21.58
2022-08-17T03:04:35.293Z,24.13
2022-08-17T03:07:02.806Z,22.27
2022-08-17T03:09:29.312Z,26.33
2022-08-17T03:11:56.063Z,22.50
2022-08-17T03:14:26.144Z,24.85
2022-08-17T03:16:53.666Z,24.55
2022-08-17T03:19:20.229Z,23.90
2022-08-17T03:21:46.768Z,24.05
2022-08-17T03:24:21.958Z,30.95
2022-08-17T03:26:55.451Z,35.25
2022-08-17T03:29:22.095Z,36.65
2022-08-17T03:31:49.272Z,35.20
2022-08-17T03:34:16.829Z,30.55
2022-08-17T03:36:43.584Z,25.02
2022-08-17T03:39:10.274Z,25.25
2022-08-17T03:41:37.600Z,30.58
2022-08-17T03:44:04.192Z,28.88
2022-08-17T03:46:49.425Z,29.40
2022-08-17T03:49:34.578Z,29.42
2022-08-17T03:52:19.849Z,28.42
2022-08-17T03:55:05.155Z,29.65
2022-08-17T03:57:32.718Z,27.33
2022-08-17T03:59:59.771Z,28.45
2022-08-17T04:02:31.414Z,27.30
2022-08-17T04:04:58.762Z,28.17
2022-08-17T04:07:27.508Z,26.75
2022-08-17T04:09:54.052Z,29.20
2022-08-17T04:12:22.353Z,28.95
2022-08-17T04:14:52.945Z,29.77
2022-08-17T04:17:26.110Z,29.85
2022-08-17T04:19:54.495Z,28.08
2022-08-17T04:22:33.070Z,30.50
2022-08-17T04:25:07.478Z,26.17
2022-08-17T04:27:34.358Z,28.67
2022-08-17T04:30:01.127Z,27.20
2022-08-17T04:33:04.057Z,29.60
2022-08-17T04:35:18.795Z,29.13
2022-08-17T04:37:45.516Z,28.75
2022-08-17T04:40:30.791Z,29.27
2022-08-17T04:43:05.462Z,28.95
2022-08-17T04:45:32.641Z,31.48
2022-08-17T04:48:00.521Z,27.80
2022-08-17T04:50:27.463Z,29.42
2022-08-17T04:52:54.186Z,29.67
2022-08-17T04:55:20.832Z,28.48
2022-08-17T04:57:47.407Z,29.08
2022-08-17T05:00:14.158Z,27.40
2022-08-17T05:02:51.004Z,29.30
2022-08-17T05:05:28.479Z,29.10
2022-08-17T05:07:56.829Z,27.60
2022-08-17T05:10:25.188Z,30.25
2022-08-17T05:13:09.339Z,28.23
2022-08-17T05:15:37.940Z,31.42
2022-08-17T05:18:11.550Z,32.15
2022-08-17T05:20:39.597Z,30.00
2022-08-17T05:23:09.847Z,30.33
2022-08-17T05:25:47.910Z,28.65
2022-08-17T05:28:16.000Z,28.08
2022-08-17T05:30:43.615Z,28.85
2022-08-17T05:33:13.787Z,31.02
2022-08-17T05:35:43.959Z,29.52
2022-08-17T05:38:10.682Z,28.80
2022-08-17T05:40:38.264Z,29.02
2022-08-17T05:43:12.898Z,27.95
2022-08-17T05:45:55.354Z,25.77
2022-08-17T05:48:35.515Z,25.85
2022-08-17T05:51:20.156Z,25.67
2022-08-17T05:54:17.774Z,26.90
2022-08-17T05:57:07.142Z,23.35
2022-08-17T05:59:38.289Z,23.88
2022-08-17T06:02:47.084Z,30.90
2022-08-17T06:05:42.909Z,28.58
2022-08-17T06:08:18.712Z,27.08
2022-08-17T06:11:28.553Z,30.15
2022-08-17T06:14:31.455Z,27.38
2022-08-17T06:17:03.535Z,27.55
2022-08-17T06:19:40.823Z,27.02
2022-08-17T06:22:08.758Z,29.15
2022-08-17T06:24:42.925Z,29.85
2022-08-17T06:27:35.663Z,31.00
2022-08-17T06:30:13.006Z,30.02
2022-08-17T06:32:43.345Z,30.40
2022-08-17T06:35:13.067Z,26.77
2022-08-17T06:37:59.824Z,25.67
2022-08-17T06:40:55.584Z,28.50
2022-08-17T06:43:40.168Z,28.00
2022-08-17T06:46:25.361Z,27.05
2022-08-17T06:49:14.726Z,23.50
2022-08-17T06:51:46.416Z,25.70
2022-08-17T06:54:22.215Z,20.70
2022-08-17T06:57:16.314Z,23.20
2022-08-17T07:02:52.523Z,21.60
2022-08-17T07:05:24.497Z,19.15
2022-08-17T07:08:05.117Z,19.13
2022-08-17T07:10:38.456Z,20.55
2022-08-17T07:13:26.029Z,19.02
2022-08-17T07:16:10.117Z,18.88
2022-08-17T07:18:37.364Z,17.90
2022-08-17T07:21:40.777Z,19.20
2022-08-17T07:24:45.178Z,18.10
2022-08-17T07:29:48.795Z,20.27
2022-08-17T07:32:19.444Z,21.15
2022-08-17T07:35:22.085Z,19.08
2022-08-17T07:38:25.147Z,18.30
2022-08-17T07:41:06.012Z,20.48
2022-08-17T07:43:36.474Z,19.60
2022-08-17T07:46:50.709Z,18.50
2022-08-17T07:49:31.780Z,20.15
2022-08-17T07:52:47.426Z,20.52
2022-08-17T07:54:57.084Z,22.00
2022-08-17T07:57:31.996Z,18.88
2022-08-17T08:00:01.638Z,15.80
2022-08-17T08:02:43.164Z,17.35
2022-08-17T08:05:16.260Z,17.95
2022-08-17T08:08:16.058Z,17.60
2022-08-17T08:10:45.345Z,15.75
2022-08-17T08:13:22.601Z,14.13
2022-08-17T08:15:54.880Z,16.05
2022-08-17T08:18:53.313Z,14.95
2022-08-17T08:21:42.813Z,15.25
2022-08-17T08:24:12.314Z,14.25
2022-08-17T08:26:46.367Z,13.68
2022-08-17T08:29:32.855Z,15.95
2022-08-17T08:32:07.932Z,15.23
2022-08-17T08:35:00.548Z,14.88
2022-08-17T08:37:42.442Z,13.80
2022-08-17T08:40:27.898Z,16.13
2022-08-17T08:43:26.710Z,16.17
2022-08-17T08:46:24.352Z,15.48
2022-08-17T08:49:10.102Z,15.35
2022-08-17T08:51:59.080Z,13.32
2022-08-17T08:54:48.937Z,15.43
2022-08-17T08:57:26.748Z,13.52
2022-08-17T09:00:06.753Z,15.55
2022-08-17T09:02:38.853Z,12.77
2022-08-17T09:05:15.060Z,12.25
2022-08-17T09:08:06.162Z,12.88
2022-08-17T09:10:55.839Z,11.57
2022-08-17T09:13:31.877Z,11.50
2022-08-17T09:16:23.122Z,9.13
2022-08-17T09:18:59.923Z,11.57
2022-08-17T09:21:52.547Z,12.57
2022-08-17T09:24:26.898Z,10.77
2022-08-17T09:26:59.431Z,10.10
2022-08-17T09:29:27.103Z,10.07
2022-08-17T09:31:59.598Z,12.27
2022-08-17T09:34:33.516Z,9.00
2022-08-17T09:37:21.101Z,8.35
2022-08-17T09:40:23.060Z,9.30
2022-08-17T09:42:54.611Z,9.45
2022-08-17T09:45:26.893Z,7.85
2022-08-17T09:51:05.173Z,9.98
2022-08-17T09:53:33.511Z,9.32
2022-08-17T09:56:09.582Z,8.82
2022-08-17T09:59:07.094Z,8.15
2022-08-17T10:01:41.158Z,7.63
2022-08-17T10:04:20.389Z,7.72
2022-08-17T10:06:52.668Z,7.82
2022-08-17T10:09:29.975Z,7.68
2022-08-17T10:12:20.243Z,8.68
2022-08-17T10:15:18.809Z,6.53
2022-08-17T10:18:03.948Z,6.95
2022-08-17T10:20:42.849Z,7.40
2022-08-17T10:23:43.817Z,6.97
2022-08-17T10:26:21.819Z,6.72
2022-08-17T10:28:53.692Z,6.45
2022-08-17T10:31:34.728Z,6.57
2022-08-17T10:34:08.101Z,6.30
2022-08-17T10:36:59.297Z,6.90
2022-08-17T10:39:32.689Z,5.68
2022-08-17T10:42:03.708Z,6.70
2022-08-17T10:44:49.149Z,6.15
2022-08-17T10:47:18.861Z,5.65
2022-08-17T10:49:53.621Z,6.47
2022-08-17T10:52:20.155Z,5.80
2022-08-17T10:54:48.365Z,6.70
2022-08-17T10:57:27.914Z,6.10
2022-08-17T10:59:56.573Z,5.57
2022-08-17T11:02:31.427Z,5.25
2022-08-17T11:05:07.756Z,5.18
2022-08-17T11:07:47.341Z,5.20
2022-08-17T11:10:28.916Z,4.68
2022-08-17T11:13:07.384Z,5.10
2022-08-17T11:15:36.720Z,5.10
2022-08-17T11:18:22.385Z,5.00
2022-08-17T11:21:21.409Z,4.40
2022-08-17T11:24:00.386Z,4.10
2022-08-17T11:26:31.911Z,4.75
2022-08-17T11:29:05.319Z,5.40
2022-08-17T11:31:38.487Z,4.20
2022-08-17T11:37:17.451Z,4.28
2022-08-17T11:40:14.750Z,4.28
2022-08-17T11:43:03.390Z,4.20
2022-08-17T11:46:22.346Z,3.90
2022-08-17T11:49:31.683Z,4.30
2022-08-17T11:52:01.274Z,4.40
2022-08-17T11:54:33.676Z,4.28
2022-08-17T11:57:21.657Z,4.22
2022-08-17T11:59:48.127Z,4.70
2022-08-17T12:02:32.963Z,4.45
2022-08-17T12:05:14.470Z,4.25
2022-08-17T12:07:57.244Z,4.70
2022-08-17T12:10:31.887Z,4.68
2022-08-17T12:12:59.843Z,4.40
2022-08-17T12:15:32.577Z,4.68
2022-08-17T12:17:59.238Z,5.30
2022-08-17T12:20:39.483Z,5.07
2022-08-17T12:23:20.217Z,5.40
2022-08-17T12:25:57.621Z,5.20
2022-08-17T12:28:28.115Z,5.90
2022-08-17T12:30:58.643Z,5.40
2022-08-17T12:33:28.492Z,5.55
2022-08-17T12:36:04.589Z,5.35
2022-08-17T12:38:36.188Z,5.65
2022-08-17T12:41:24.948Z,5.43
2022-08-17T12:44:06.502Z,5.68
2022-08-17T12:46:44.794Z,5.68
2022-08-17T12:49:22.912Z,5.85
2022-08-17T12:51:50.628Z,5.40
2022-08-17T12:54:31.447Z,5.47
2022-08-17T12:57:02.736Z,4.60
2022-08-17T12:59:32.983Z,5.75
2022-08-17T13:02:00.154Z,5.50
2022-08-17T13:04:29.625Z,5.85
2022-08-17T13:06:59.689Z,6.32
2022-08-17T13:09:35.459Z,4.85
2022-08-17T13:12:06.852Z,5.05
2022-08-17T13:14:34.197Z,5.10
2022-08-17T13:17:02.260Z,5.50
2022-08-17T13:19:40.393Z,4.70
2022-08-17T13:22:11.275Z,5.10
2022-08-17T13:24:38.287Z,5.03
2022-08-17T13:27:08.408Z,5.13
2022-08-17T13:29:44.163Z,5.05
2022-08-17T13:32:14.281Z,4.90
2022-08-17T13:35:11.785Z,5.03
2022-08-17T13:37:40.986Z,5.88
2022-08-17T13:40:09.201Z,6.30
2022-08-17T13:42:53.987Z,5.20
2022-08-17T13:45:39.600Z,4.80
2022-08-17T13:48:17.297Z,5.20
2022-08-17T13:50:59.473Z,5.13
2022-08-17T13:53:31.186Z,5.22
2022-08-17T13:55:59.954Z,4.80
2022-08-17T13:58:32.485Z,4.88
2022-08-17T14:00:59.025Z,4.97
2022-08-17T14:03:25.607Z,5.38
2022-08-17T14:05:52.851Z,4.32
2022-08-17T14:08:20.099Z,4.63
2022-08-17T14:10:57.737Z,4.47
2022-08-17T14:13:24.277Z,4.72
2022-08-17T14:15:56.319Z,4.40
2022-08-17T14:18:55.536Z,4.45
2022-08-17T14:21:10.141Z,4.80
2022-08-17T14:23:37.120Z,4.90
2022-08-17T14:26:04.130Z,4.75
2022-08-17T14:28:30.901Z,4.88
2022-08-17T14:31:01.947Z,4.65
2022-08-17T14:33:29.357Z,4.50
2022-08-17T14:35:57.440Z,4.70
2022-08-17T14:38:24.228Z,4.68
2022-08-17T14:40:50.789Z,4.55
2022-08-17T14:43:18.655Z,3.92
2022-08-17T14:45:45.158Z,4.13
2022-08-17T14:48:11.833Z,4.45
2022-08-17T14:50:41.399Z,4.15
2022-08-17T14:53:10.296Z,4.20
2022-08-17T14:55:39.687Z,4.55
2022-08-17T14:58:06.830Z,4.10
2022-08-17T15:00:33.536Z,3.97
2022-08-17T15:03:00.702Z,3.80
2022-08-17T15:05:33.512Z,4.65
2022-08-17T15:08:01.222Z,4.32
2022-08-17T15:10:28.700Z,4.90
2022-08-17T15:12:55.409Z,4.45
2022-08-17T15:15:22.435Z,4.18
2022-08-17T15:17:49.298Z,4.63
2022-08-17T15:20:22.778Z,4.13
2022-08-17T15:22:49.785Z,4.68
2022-08-17T15:25:17.996Z,4.78
2022-08-17T15:27:44.709Z,4.40
2022-08-17T15:30:11.960Z,4.70
2022-08-17T15:32:40.586Z,4.35
2022-08-17T15:35:09.129Z,4.53
2022-08-17T15:37:36.239Z,4.30
2022-08-17T15:40:03.786Z,4.40
2022-08-17T15:42:30.336Z,4.18
2022-08-17T15:44:57.254Z,4.20
2022-08-17T15:47:24.017Z,4.65
2022-08-17T15:49:50.966Z,4.40
2022-08-17T15:52:26.206Z,4.22
2022-08-17T15:55:00.780Z,4.07
2022-08-17T15:57:27.702Z,3.97
2022-08-17T15:59:58.962Z,4.30
2022-08-17T16:03:14.822Z,4.32
2022-08-17T16:05:22.065Z,4.10
2022-08-17T16:07:51.630Z,4.80
2022-08-17T16:10:19.172Z,4.30
2022-08-17T16:12:47.712Z,4.38
2022-08-17T16:15:14.607Z,4.40
2022-08-17T16:17:43.922Z,4.20
2022-08-17T16:20:19.918Z,4.00
2022-08-17T16:22:48.411Z,4.20
2022-08-17T16:25:21.467Z,3.80
2022-08-17T16:27:54.364Z,4.10
2022-08-17T16:30:23.793Z,4.00
2022-08-17T16:32:51.749Z,3.85
2022-08-17T16:35:21.073Z,3.53
2022-08-17T16:37:47.980Z,3.20
2022-08-17T16:40:16.582Z,3.40
2022-08-17T16:42:43.288Z,3.45
2022-08-17T16:45:18.988Z,3.58
2022-08-17T16:47:45.933Z,3.38
2022-08-17T16:50:15.363Z,3.53
2022-08-17T16:52:42.212Z,3.83
2022-08-17T16:55:13.119Z,3.30
2022-08-17T16:57:48.527Z,3.20
2022-08-17T17:00:18.190Z,3.00
2022-08-17T17:02:47.204Z,3.15
2022-08-17T17:05:41.283Z,3.63
2022-08-17T17:08:12.691Z,3.25
2022-08-17T17:10:46.063Z,3.60
2022-08-17T17:16:12.643Z,3.33
2022-08-17T17:19:05.102Z,3.53
2022-08-17T17:21:46.988Z,3.70
2022-08-17T17:24:50.210Z,3.50
2022-08-17T17:27:19.695Z,3.30
2022-08-17T17:29:59.224Z,3.47
2022-08-17T17:32:47.381Z,3.50
2022-08-17T17:35:26.406Z,3.35
2022-08-17T17:37:54.420Z,3.55
2022-08-17T17:40:32.176Z,3.38
2022-08-17T17:43:14.200Z,3.33
2022-08-17T17:46:28.348Z,3.15
2022-08-17T17:48:58.412Z,3.50
2022-08-17T17:52:06.887Z,3.50
2022-08-17T17:54:58.694Z,3.78
2022-08-17T17:57:40.564Z,3.13
2022-08-17T18:00:13.202Z,3.60
2022-08-17T18:03:09.804Z,3.40
2022-08-17T18:05:44.433Z,3.15
2022-08-17T18:08:32.427Z,3.47
2022-08-17T18:11:24.688Z,3.50
2022-08-17T18:14:29.494Z,3.22
2022-08-17T18:16:59.076Z,3.45
2022-08-17T18:19:28.091Z,3.33
2022-08-17T18:22:06.927Z,3.78
2022-08-17T18:24:37.881Z,3.20
2022-08-17T18:27:47.485Z,3.10
2022-08-17T18:30:13.870Z,3.83
2022-08-17T18:32:43.504Z,3.58
2022-08-17T18:35:10.002Z,2.88
2022-08-17T18:37:47.173Z,3.13
2022-08-17T18:40:26.831Z,3.40
2022-08-17T18:42:58.573Z,3.20
2022-08-17T18:45:57.978Z,3.10
2022-08-17T18:48:29.808Z,3.40
2022-08-17T18:51:03.058Z,3.53
2022-08-17T18:53:39.446Z,2.97
2022-08-17T18:56:16.361Z,3.53
2022-08-17T18:58:43.307Z,3.25
2022-08-17T19:01:20.438Z,3.15
2022-08-17T19:03:47.100Z,3.10
2022-08-17T19:06:31.448Z,3.25
2022-08-17T19:08:59.422Z,3.50
2022-08-17T19:11:35.692Z,3.60
2022-08-17T19:14:10.271Z,3.08
2022-08-17T19:16:42.541Z,3.60
2022-08-17T19:19:16.229Z,3.53
2022-08-17T19:21:46.269Z,4.07
2022-08-17T19:24:24.277Z,3.47
2022-08-17T19:26:56.400Z,3.78
2022-08-17T19:29:38.607Z,3.50
2022-08-17T19:32:07.930Z,3.47
2022-08-17T19:34:36.175Z,3.45
2022-08-17T19:37:09.472Z,3.97
2022-08-17T19:40:10.040Z,3.45
2022-08-17T19:42:53.007Z,3.50
2022-08-17T19:45:33.266Z,3.30
2022-08-17T19:48:19.356Z,3.40
2022-08-17T19:50:55.893Z,3.70
2022-08-17T19:54:01.601Z,3.40
2022-08-17T19:56:45.091Z,3.53
2022-08-17T19:59:49.552Z,3.70
2022-08-17T20:02:19.130Z,3.95
2022-08-17T20:04:46.931Z,3.20
2022-08-17T20:07:26.513Z,3.60
2022-08-17T20:10:30.908Z,3.55
2022-08-17T20:13:02.908Z,4.22
2022-08-17T20:15:31.252Z,3.83
2022-08-17T20:18:01.502Z,3.78
2022-08-17T20:20:47.189Z,4.13
2022-08-17T20:23:30.315Z,3.97
2022-08-17T20:26:19.065Z,3.92
2022-08-17T20:29:04.391Z,4.15
2022-08-17T20:31:46.859Z,4.32
2022-08-17T20:34:25.725Z,4.28
2022-08-17T20:37:09.323Z,4.32
2022-08-17T20:39:39.900Z,4.18
2022-08-17T20:42:21.609Z,4.40
2022-08-17T20:45:02.862Z,4.32
2022-08-17T20:48:00.769Z,4.50
2022-08-17T20:50:36.669Z,4.30
2022-08-17T20:53:06.128Z,4.80
2022-08-17T20:55:35.594Z,4.80
2022-08-17T20:58:24.527Z,4.30
2022-08-17T21:00:57.141Z,4.55
2022-08-17T21:03:23.838Z,4.90
2022-08-17T21:06:15.314Z,4.70
2022-08-17T21:08:57.852Z,5.80
2022-08-17T21:12:02.797Z,6.47
2022-08-17T21:14:33.670Z,8.27
2022-08-17T21:17:29.528Z,7.32
2022-08-17T21:20:14.618Z,8.07
2022-08-17T21:22:54.864Z,7.78
2022-08-17T21:25:24.633Z,8.88
2022-08-17T21:28:12.790Z,9.68
2022-08-17T21:30:39.181Z,10.35
2022-08-17T21:33:16.423Z,9.93
2022-08-17T21:35:51.360Z,10.70
2022-08-17T21:38:20.738Z,11.02
2022-08-17T21:40:50.760Z,11.80
2022-08-17T21:43:27.310Z,12.23
2022-08-17T21:46:05.679Z,12.80
2022-08-17T21:48:44.056Z,13.25
2022-08-17T21:51:17.540Z,15.57
2022-08-17T21:53:50.507Z,14.13
2022-08-17T21:56:26.472Z,15.82
2022-08-17T21:58:58.553Z,15.13
2022-08-17T22:01:34.478Z,12.80
2022-08-17T22:04:08.659Z,12.90
2022-08-17T22:06:37.297Z,12.18
2022-08-17T22:09:14.039Z,13.07
2022-08-17T22:11:52.949Z,12.80
2022-08-17T22:14:52.776Z,13.20
2022-08-17T22:17:18.190Z,15.73
2022-08-17T22:19:49.172Z,12.35
2022-08-17T22:22:32.929Z,11.85
2022-08-17T22:25:04.084Z,13.27
2022-08-17T22:27:45.743Z,13.88
2022-08-17T22:30:45.553Z,15.48
2022-08-17T22:33:41.527Z,15.57
2022-08-17T22:36:25.128Z,14.60
2022-08-17T22:39:14.949Z,15.82
2022-08-17T22:41:48.085Z,17.45
2022-08-17T22:44:35.563Z,16.80
2022-08-17T22:47:07.464Z,15.18
2022-08-17T22:49:53.264Z,17.92
2022-08-17T22:52:34.863Z,17.17
2022-08-17T22:55:32.927Z,17.38
2022-08-17T22:58:19.440Z,16.08
2022-08-17T23:00:48.610Z,17.80
2022-08-17T23:03:24.322Z,16.13
2022-08-17T23:06:04.736Z,16.35
2022-08-17T23:08:32.481Z,15.65
2022-08-17T23:11:00.350Z,15.43
2022-08-17T23:13:33.328Z,15.77
2022-08-17T23:15:59.932Z,14.20
2022-08-17T23:18:27.255Z,13.85
2022-08-17T23:20:53.986Z,13.27
2022-08-17T23:23:23.668Z,13.32
2022-08-17T23:25:50.517Z,13.50
2022-08-17T23:28:17.240Z,13.98
2022-08-17T23:30:45.027Z,12.73
2022-08-17T23:33:21.699Z,14.38
2022-08-17T23:35:48.376Z,13.88
2022-08-17T23:38:14.867Z,14.50
2022-08-17T23:40:41.393Z,14.10
2022-08-17T23:43:24.824Z,13.75
2022-08-17T23:45:54.063Z,13.52
2022-08-17T23:48:36.159Z,15.07
2022-08-17T23:51:14.980Z,14.18
2022-08-17T23:53:46.321Z,16.88
2022-08-17T23:56:12.874Z,15.25
2022-08-17T23:58:42.062Z,15.45
